Time;durP1;ratioP1;P1;durP2;ratioP2;P2;SDS_P1;SDS_P2;PMS_P1;PMS_P2;Temp;Humidity;BMP_temperature;BMP_pressure;BME280_temperature;BME280_humidity;BME280_pressure;Samples;Min_cycle;Max_cycle;Signal;HPM_P1;HPM_P2
2022/01/23 00:00:34;;;;;;;8.45;5.38;;;;;;;-4.16;100.00;96507.66;5028769;28;20065;-64
2022/01/23 00:03:01;;;;;;;10.15;5.15;;;;;;;-4.18;100.00;96512.19;5030929;28;20037;-64
2022/01/23 00:05:35;;;;;;;9.85;5.60;;;;;;;-4.16;100.00;96512.06;5050571;28;20024;-64
2022/01/23 00:08:01;;;;;;;9.95;4.95;;;;;;;-4.16;100.00;96507.66;5052500;28;20025;-63
2022/01/23 00:10:30;;;;;;;9.55;5.47;;;;;;;-4.19;100.00;96509.72;5020595;28;20029;-63
2022/01/23 00:13:07;;;;;;;7.25;4.80;;;;;;;-4.23;100.00;96503.13;5048767;28;20483;-63
2022/01/23 00:18:18;;;;;;;6.90;4.57;;;;;;;-4.37;100.00;96491.28;5037610;28;20064;-62
2022/01/23 00:20:47;;;;;;;8.43;4.93;;;;;;;-4.41;100.00;96488.13;5039206;28;20025;-62
2022/01/23 00:23:27;;;;;;;8.65;4.97;;;;;;;-4.43;100.00;96489.22;5038115;28;20032;-62
2022/01/23 00:31:25;;;;;;;7.88;4.78;;;;;;;-4.54;100.00;96489.38;5049365;28;20141;-62
2022/01/23 00:33:54;;;;;;;10.25;4.60;;;;;;;-4.57;100.00;96492.22;5022885;28;20045;-59
2022/01/23 00:36:26;;;;;;;10.75;5.13;;;;;;;-4.59;100.00;96488.94;5044471;28;20064;-61
2022/01/23 00:38:56;;;;;;;8.63;4.85;;;;;;;-4.54;100.00;96491.97;5036292;28;20021;-62
2022/01/23 00:41:21;;;;;;;8.40;4.72;;;;;;;-4.55;100.00;96490.31;5018677;28;20024;-61
2022/01/23 00:43:52;;;;;;;8.20;4.30;;;;;;;-4.58;100.00;96485.34;5050003;28;20037;-61
2022/01/23 00:51:37;;;;;;;9.98;4.95;;;;;;;-4.59;100.00;96483.69;5051799;28;20031;-61
2022/01/23 00:54:12;;;;;;;11.77;5.35;;;;;;;-4.62;100.00;96489.22;5032416;28;20114;-61
2022/01/23 00:56:43;;;;;;;14.82;7.32;;;;;;;-4.57;100.00;96489.63;5033760;28;20075;-61
2022/01/23 00:59:12;;;;;;;10.73;5.85;;;;;;;-4.48;100.00;96484.38;5033613;28;20120;-60
2022/01/23 01:01:37;;;;;;;9.95;5.60;;;;;;;-4.44;100.00;96491.00;5032781;28;20025;-61
2022/01/23 01:04:04;;;;;;;8.02;4.90;;;;;;;-4.47;100.00;96483.41;5033009;28;20124;-61
2022/01/23 01:06:29;;;;;;;7.45;5.07;;;;;;;-4.50;100.00;96483.72;5031517;28;20032;-62
2022/01/23 01:09:01;;;;;;;9.32;4.75;;;;;;;-4.47;100.00;96480.81;5051610;28;20031;-61
2022/01/23 01:14:22;;;;;;;9.63;4.75;;;;;;;-4.43;100.00;96482.19;5050686;28;20063;-61
2022/01/23 01:30:53;;;;;;;7.93;4.47;;;;;;;-4.60;100.00;96480.25;5053855;28;20044;-61
2022/01/23 01:33:33;;;;;;;7.07;4.80;;;;;;;-4.50;100.00;96481.09;5052563;28;20048;-62
2022/01/23 01:38:52;;;;;;;8.32;4.88;;;;;;;-4.38;100.00;96487.00;5068408;28;20086;-61
2022/01/23 01:41:19;;;;;;;7.43;4.72;;;;;;;-4.41;100.00;96489.91;5050988;28;20116;-61
2022/01/23 01:43:46;;;;;;;6.65;4.43;;;;;;;-4.47;100.00;96488.66;5032173;28;20043;-60
2022/01/23 01:46:11;;;;;;;7.60;4.60;;;;;;;-4.51;100.00;96497.75;5033314;28;20025;-59
2022/01/23 01:48:40;;;;;;;7.70;4.15;;;;;;;-4.52;100.00;96490.88;5031804;28;20025;-61
2022/01/23 01:51:09;;;;;;;8.82;4.93;;;;;;;-4.48;100.00;96491.41;5033381;28;20032;-61
2022/01/23 01:53:35;;;;;;;8.48;4.88;;;;;;;-4.48;100.00;96501.88;5049157;28;20445;-61
2022/01/23 01:56:00;;;;;;;10.95;5.97;;;;;;;-4.46;100.00;96506.00;5050691;28;20025;-60
2022/01/23 02:09:39;;;;;;;10.02;6.18;;;;;;;-4.61;100.00;96476.00;5036197;28;20035;-61
2022/01/23 02:17:53;;;;;;;11.00;6.97;;;;;;;-4.83;100.00;96478.88;5049788;28;20400;-58
2022/01/23 02:23:41;;;;;;;14.07;7.25;;;;;;;-4.92;100.00;96477.06;5059897;28;20028;-61
2022/01/23 02:50:53;;;;;;;15.15;9.27;;;;;;;-4.05;100.00;96445.66;5054193;28;20094;-61
2022/01/23 02:56:07;;;;;;;15.40;8.63;;;;;;;-4.05;100.00;96438.63;5053165;28;20032;-61
2022/01/23 02:58:54;;;;;;;17.92;9.27;;;;;;;-4.08;100.00;96431.06;5054123;28;20025;-58
2022/01/23 03:01:20;;;;;;;16.40;9.02;;;;;;;-4.14;100.00;96419.38;5038522;28;20021;-61
2022/01/23 03:03:49;;;;;;;16.88;9.10;;;;;;;-4.17;100.00;96422.28;5053424;28;20029;-60
2022/01/23 03:06:54;;;;;;;13.15;8.52;;;;;;;-4.14;100.00;96426.38;5052524;28;20048;-60
2022/01/23 03:30:28;;;;;;;25.15;13.45;;;;;;;-2.61;100.00;96370.66;5065669;28;20102;-61
2022/01/23 03:32:54;;;;;;;23.70;14.38;;;;;;;-2.45;100.00;96372.63;5034739;28;20024;-64
2022/01/23 03:35:22;;;;;;;24.02;13.98;;;;;;;-2.33;100.00;96366.97;5052918;28;20029;-63
2022/01/23 03:37:48;;;;;;;26.00;15.18;;;;;;;-2.20;100.00;96371.81;5068374;28;20028;-63
2022/01/23 03:40:14;;;;;;;26.40;15.00;;;;;;;-2.10;100.00;96362.03;5055124;28;20055;-62
2022/01/23 03:42:42;;;;;;;27.25;15.65;;;;;;;-2.06;100.00;96360.75;5060538;28;20434;-61
2022/01/23 03:49:30;;;;;;;24.75;14.43;;;;;;;-2.00;100.00;96368.97;5052283;28;20104;-61
2022/01/23 03:50:46;;;;;;;25.23;14.60;;;;;;;-1.99;100.00;96373.25;5052730;28;20048;-63
2022/01/23 03:53:12;;;;;;;24.13;14.05;;;;;;;-1.97;100.00;96377.34;5034596;28;20107;-62
2022/01/23 03:55:43;;;;;;;27.30;13.98;;;;;;;-1.97;100.00;96382.59;5048827;28;20762;-61
2022/01/23 03:58:15;;;;;;;28.10;14.95;;;;;;;-1.93;100.00;96385.75;5052918;28;20103;-61
2022/01/23 04:00:40;;;;;;;24.50;14.15;;;;;;;-1.95;100.00;96385.91;5033751;28;20025;-60
2022/01/23 04:03:05;;;;;;;22.02;13.13;;;;;;;-1.92;100.00;96390.03;5034432;28;20090;-60
2022/01/23 04:05:31;;;;;;;24.85;13.90;;;;;;;-1.91;100.00;96389.88;5033749;28;20016;-61
2022/01/23 04:07:58;;;;;;;22.55;13.18;;;;;;;-1.87;100.00;96395.63;5052332;28;20028;-60
2022/01/23 04:10:24;;;;;;;24.80;13.70;;;;;;;-1.85;100.00;96393.66;5052642;28;20365;-63
2022/01/23 04:12:55;;;;;;;23.40;12.77;;;;;;;-1.85;100.00;96378.72;5033106;28;20067;-63
2022/01/23 04:45:26;;;;;;;21.35;12.77;;;;;;;-1.77;100.00;96370.91;5037123;28;20506;-63
2022/01/23 04:48:24;;;;;;;21.13;13.00;;;;;;;-1.72;100.00;96377.50;5050715;28;20526;-63
2022/01/23 05:04:32;;;;;;;23.00;13.32;;;;;;;-1.61;100.00;96400.88;5051516;28;20109;-62
2022/01/23 05:07:10;;;;;;;23.77;14.25;;;;;;;-1.59;100.00;96398.91;5050179;28;20041;-64
2022/01/23 05:09:41;;;;;;;19.30;12.32;;;;;;;-1.59;100.00;96394.47;5051632;28;20104;-63
2022/01/23 05:12:08;;;;;;;24.20;14.10;;;;;;;-1.58;100.00;96395.28;5050586;28;20040;-63
2022/01/23 05:14:42;;;;;;;21.90;12.93;;;;;;;-1.55;100.00;96398.41;5033337;28;20067;-62
2022/01/23 05:17:15;;;;;;;23.13;12.68;;;;;;;-1.54;100.00;96388.72;5051303;28;20569;-63
2022/01/23 05:19:41;;;;;;;22.08;12.40;;;;;;;-1.51;100.00;96389.25;5032515;28;20070;-64
2022/01/23 05:22:22;;;;;;;23.63;12.55;;;;;;;-1.49;100.00;96387.28;5033509;28;20035;-64
2022/01/23 05:25:16;;;;;;;25.60;12.77;;;;;;;-1.47;100.00;96387.94;5050374;28;20027;-65
2022/01/23 05:27:42;;;;;;;21.92;11.88;;;;;;;-1.44;100.00;96392.06;5050988;28;20029;-61
2022/01/23 05:30:08;;;;;;;24.10;13.45;;;;;;;-1.40;100.00;96400.47;5049872;28;20811;-64
2022/01/23 05:32:40;;;;;;;24.17;12.88;;;;;;;-1.38;100.00;96396.69;5050979;28;20060;-63
2022/01/23 05:35:14;;;;;;;24.83;12.77;;;;;;;-1.35;100.00;96392.91;5049003;28;20114;-64
2022/01/23 05:37:40;;;;;;;25.45;12.88;;;;;;;-1.34;100.00;96392.75;5031102;28;20546;-63
2022/01/23 05:40:10;;;;;;;24.20;12.98;;;;;;;-1.30;100.00;96402.00;5032850;28;20032;-61
2022/01/23 05:42:35;;;;;;;21.30;12.45;;;;;;;-1.27;100.00;96401.66;5048975;28;20480;-63
2022/01/23 05:45:00;;;;;;;24.10;13.15;;;;;;;-1.26;100.00;96403.31;5048986;28;20032;-62
2022/01/23 05:47:26;;;;;;;24.63;13.85;;;;;;;-1.24;100.00;96413.66;5049539;28;20086;-64
2022/01/23 05:49:53;;;;;;;22.10;13.23;;;;;;;-1.23;100.00;96425.81;5050747;28;20068;-63
2022/01/23 05:52:19;;;;;;;22.73;12.00;;;;;;;-1.19;100.00;96427.16;5052281;28;20083;-63
2022/01/23 05:54:44;;;;;;;21.08;11.93;;;;;;;-1.17;100.00;96431.28;5035496;28;20395;-63
2022/01/23 05:57:10;;;;;;;21.27;13.02;;;;;;;-1.14;100.00;96431.94;5036823;28;20029;-64
2022/01/23 05:59:35;;;;;;;23.05;12.68;;;;;;;-1.13;100.00;96429.16;5053555;28;20434;-63
2022/01/23 06:02:00;;;;;;;25.02;13.13;;;;;;;-1.10;100.00;96428.00;5054922;28;20630;-63
2022/01/23 06:04:26;;;;;;;22.77;13.60;;;;;;;-1.08;100.00;96436.56;5054197;28;20040;-62
2022/01/23 06:06:57;;;;;;;20.48;12.90;;;;;;;-1.07;100.00;96431.16;5035750;28;20048;-62
2022/01/23 06:09:24;;;;;;;20.98;12.80;;;;;;;-1.07;100.00;96430.31;5054705;28;20036;-61
2022/01/23 06:11:55;;;;;;;22.90;12.75;;;;;;;-1.07;100.00;96432.97;5035561;28;20448;-61
2022/01/23 06:14:27;;;;;;;24.83;12.82;;;;;;;-1.05;100.00;96426.56;5054056;28;20364;-61
2022/01/23 06:16:52;;;;;;;21.67;12.65;;;;;;;-1.03;100.00;96435.09;5036474;28;20032;-59
2022/01/23 06:19:17;;;;;;;24.58;13.50;;;;;;;-1.02;100.00;96430.66;5053140;28;20468;-61
2022/01/23 06:21:43;;;;;;;24.35;12.85;;;;;;;-1.02;100.00;96425.41;5037015;28;20387;-62
2022/01/23 06:24:14;;;;;;;24.02;13.23;;;;;;;-1.01;100.00;96429.66;5035026;28;20035;-63
2022/01/23 06:26:47;;;;;;;25.10;12.98;;;;;;;-1.02;100.00;96418.34;5054571;28;20032;-62
2022/01/23 06:29:15;;;;;;;21.15;11.88;;;;;;;-1.01;100.00;96416.53;5054632;28;20025;-63
2022/01/23 06:31:48;;;;;;;23.15;12.65;;;;;;;-1.02;100.00;96412.25;5053414;28;20025;-63
2022/01/23 06:34:17;;;;;;;;;;;;;;;-1.03;100.00;96419.31;5054210;28;20056;-63
2022/01/23 06:36:48;;;;;;;18.77;11.73;;;;;;;-1.03;100.00;96421.94;5044667;28;19963;-64
2022/01/23 06:39:14;;;;;;;19.08;12.32;;;;;;;-1.03;100.00;96427.22;5054213;28;20032;-62
2022/01/23 06:41:40;;;;;;;23.48;12.15;;;;;;;-1.03;100.00;96432.47;5052881;28;20439;-64
2022/01/23 06:44:06;;;;;;;21.17;12.25;;;;;;;-1.05;100.00;96437.06;5053417;28;20116;-63
2022/01/23 06:46:34;;;;;;;20.85;12.10;;;;;;;-1.05;100.00;96444.94;5054064;28;20025;-62
2022/01/23 06:49:01;;;;;;;20.23;11.68;;;;;;;-1.06;100.00;96438.06;5034788;28;20032;-63
2022/01/23 06:51:26;;;;;;;17.13;10.70;;;;;;;-1.05;100.00;96437.06;5019762;28;20037;-64
2022/01/23 06:53:52;;;;;;;20.83;11.43;;;;;;;-1.05;100.00;96442.31;5052510;28;20029;-62
2022/01/23 06:56:18;;;;;;;18.33;11.02;;;;;;;-1.04;100.00;96451.84;5036006;28;20021;-63
2022/01/23 06:58:44;;;;;;;17.63;10.95;;;;;;;-1.00;100.00;96449.72;5053925;28;20029;-60
2022/01/23 07:01:12;;;;;;;18.95;11.48;;;;;;;-0.97;100.00;96450.25;5034761;28;20463;-62
2022/01/23 07:03:41;;;;;;;17.63;11.00;;;;;;;-0.95;100.00;96457.97;5052811;28;20116;-62
2022/01/23 07:06:07;;;;;;;18.27;10.68;;;;;;;-0.93;100.00;96456.00;5033979;28;20118;-61
2022/01/23 07:08:32;;;;;;;19.42;10.93;;;;;;;-0.92;100.00;96455.84;5052316;28;20162;-62
2022/01/23 07:10:58;;;;;;;21.33;11.48;;;;;;;-0.91;100.00;96460.13;5008440;28;20033;-62
2022/01/23 07:13:24;;;;;;;19.08;11.25;;;;;;;-0.91;100.00;96454.84;5050356;28;20040;-61
2022/01/23 07:15:49;;;;;;;20.17;11.13;;;;;;;-0.92;100.00;96457.66;5052897;28;20029;-61
2022/01/23 07:18:18;;;;;;;19.45;10.75;;;;;;;-0.93;100.00;96456.00;5034381;28;20024;-63
2022/01/23 07:20:45;;;;;;;20.30;11.35;;;;;;;-0.94;100.00;96451.72;5035589;28;20056;-64
2022/01/23 07:23:10;;;;;;;17.92;10.65;;;;;;;-0.96;100.00;96451.06;5053321;28;20039;-61
2022/01/23 07:25:39;;;;;;;20.23;10.95;;;;;;;-0.96;100.00;96445.81;5051432;28;20021;-64
2022/01/23 07:28:09;;;;;;;20.90;11.50;;;;;;;-0.95;100.00;96450.91;5019303;28;20028;-63
2022/01/23 07:30:44;;;;;;;17.02;10.63;;;;;;;-0.94;100.00;96451.72;5034999;28;20098;-63
2022/01/23 07:33:09;;;;;;;19.63;11.65;;;;;;;-0.91;100.00;96456.66;5052856;28;20044;-65
2022/01/23 07:35:35;;;;;;;19.63;10.35;;;;;;;-0.90;100.00;96471.44;5033443;28;20396;-64
2022/01/23 07:38:00;;;;;;;19.67;10.90;;;;;;;-0.90;100.00;96477.53;5035439;28;20079;-64
2022/01/23 07:40:25;;;;;;;16.98;10.27;;;;;;;-0.88;100.00;96485.25;5053221;28;20027;-63
2022/01/23 07:42:51;;;;;;;18.00;11.05;;;;;;;-0.86;100.00;96477.25;5033708;28;20088;-64
2022/01/23 07:45:17;;;;;;;23.92;13.98;;;;;;;-0.86;100.00;96485.97;5034901;28;20475;-64
2022/01/23 07:47:43;;;;;;;19.90;11.68;;;;;;;-0.81;100.00;96491.53;5033571;28;21364;-63
2022/01/23 07:50:09;;;;;;;19.15;10.77;;;;;;;-0.79;100.00;96479.06;5052820;28;20536;-61
2022/01/23 07:52:37;;;;;;;20.02;11.02;;;;;;;-0.77;100.00;96479.72;5034775;28;20041;-61
2022/01/23 07:55:09;;;;;;;21.08;11.98;;;;;;;-0.74;100.00;96484.69;5051269;28;20025;-61
2022/01/23 07:57:35;;;;;;;18.90;10.57;;;;;;;-0.69;100.00;96471.03;5052674;28;20525;-61
2022/01/23 08:00:00;;;;;;;18.10;11.05;;;;;;;-0.65;100.00;96478.44;5033529;28;20037;-60
2022/01/23 08:02:26;;;;;;;18.45;11.63;;;;;;;-0.61;100.00;96486.84;5052411;28;20052;-61
2022/01/23 08:04:52;;;;;;;17.88;10.90;;;;;;;-0.60;100.00;96478.78;5052136;28;20368;-62
2022/01/23 08:07:36;;;;;;;18.98;10.85;;;;;;;-0.57;100.00;96492.59;5051251;28;20029;-63
2022/01/23 08:10:06;;;;;;;17.45;10.35;;;;;;;-0.56;100.00;96499.50;5052569;28;20096;-63
2022/01/23 08:12:32;;;;;;;18.23;9.88;;;;;;;-0.55;100.00;96491.44;5051046;28;20024;-62
2022/01/23 08:15:01;;;;;;;14.85;9.35;;;;;;;-0.50;100.00;96485.72;5033362;28;20021;-64
2022/01/23 08:17:29;;;;;;;15.73;8.82;;;;;;;-0.44;100.00;96485.88;5016813;28;20025;-64
2022/01/23 08:19:59;;;;;;;13.23;7.93;;;;;;;-0.35;100.00;96486.72;5029310;28;20442;-63
2022/01/23 08:22:26;;;;;;;13.98;8.75;;;;;;;-0.28;100.00;96492.16;5052405;28;20050;-64
2022/01/23 08:24:54;;;;;;;22.27;12.23;;;;;;;-0.25;100.00;96487.38;5050364;28;20412;-63
2022/01/23 08:27:20;;;;;;;21.10;11.85;;;;;;;-0.26;100.00;96500.72;5034145;28;20021;-64
2022/01/23 08:29:50;;;;;;;18.63;11.55;;;;;;;-0.27;100.00;96502.53;5050798;28;20039;-64
2022/01/23 08:32:15;;;;;;;20.02;10.55;;;;;;;-0.29;100.00;96499.25;5052086;28;20020;-64
2022/01/23 08:34:43;;;;;;;17.98;10.85;;;;;;;-0.38;100.00;96506.28;5051197;28;20049;-63
2022/01/23 08:37:09;;;;;;;15.27;9.80;;;;;;;-0.39;100.00;96511.72;5050508;28;20063;-63
2022/01/23 08:39:37;;;;;;;17.63;9.85;;;;;;;-0.40;100.00;96517.97;5033852;28;20032;-65
2022/01/23 08:42:05;;;;;;;16.45;9.38;;;;;;;-0.47;100.00;96523.06;5050603;28;20025;-64
2022/01/23 08:44:31;;;;;;;17.15;10.45;;;;;;;-0.53;100.00;96515.81;5051218;28;20024;-64
2022/01/23 08:46:57;;;;;;;15.27;9.65;;;;;;;-0.51;100.00;96515.66;5051707;28;20027;-64
2022/01/23 08:49:26;;;;;;;16.95;10.07;;;;;;;-0.50;100.00;96515.47;5050473;28;20025;-63
2022/01/23 08:51:53;;;;;;;14.40;9.50;;;;;;;-0.52;100.00;96517.47;5051763;28;20434;-64
2022/01/23 08:54:19;;;;;;;17.85;9.35;;;;;;;-0.48;100.00;96525.84;5049844;28;20021;-64
2022/01/23 08:56:44;;;;;;;17.20;9.70;;;;;;;-0.45;100.00;96526.34;5033758;28;20039;-64
2022/01/23 08:59:10;;;;;;;18.25;10.32;;;;;;;-0.39;100.00;96535.41;5033564;28;20027;-62
2022/01/23 09:01:35;;;;;;;25.38;13.80;;;;;;;-0.36;100.00;96530.66;5031595;28;20055;-62
2022/01/23 09:04:05;;;;;;;20.83;12.45;;;;;;;-0.37;100.00;96523.72;5037637;28;20064;-64
2022/01/23 09:06:33;;;;;;;22.40;12.85;;;;;;;-0.34;100.00;96531.31;5047753;28;20063;-64
2022/01/23 09:09:00;;;;;;;20.02;12.15;;;;;;;-0.26;100.00;96522.59;5038253;28;20484;-65
2022/01/23 09:14:10;;;;;;;22.13;12.02;;;;;;;-0.11;100.00;96518.34;5030900;28;20514;-65
2022/01/23 09:16:41;;;;;;;19.73;11.43;;;;;;;-0.07;100.00;96518.84;5032449;28;20021;-65
2022/01/23 09:19:08;;;;;;;20.95;12.43;;;;;;;0.05;100.00;96507.00;5041969;28;20026;-67
2022/01/23 09:21:34;;;;;;;21.52;13.00;;;;;;;0.19;100.00;96498.41;5044667;28;20492;-66
2022/01/23 09:24:03;;;;;;;20.88;12.63;;;;;;;0.33;100.00;96501.41;5020029;28;20029;-67
2022/01/23 09:26:29;;;;;;;22.42;12.77;;;;;;;0.42;100.00;96493.28;5016246;28;20095;-66
2022/01/23 09:29:00;;;;;;;20.23;12.30;;;;;;;0.53;100.00;96495.56;5024801;28;20033;-66
2022/01/23 09:33:53;;;;;;;24.40;13.30;;;;;;;0.74;100.00;96499.50;5040498;28;20045;-67
2022/01/23 09:36:18;;;;;;;21.30;12.68;;;;;;;0.78;100.00;96501.63;5028200;28;20026;-66
2022/01/23 09:38:45;;;;;;;23.65;12.82;;;;;;;0.77;100.00;96496.53;5021367;28;20420;-67
2022/01/23 09:41:20;;;;;;;22.33;11.82;;;;;;;0.81;100.00;96505.75;5017783;28;20033;-66
2022/01/23 09:43:49;;;;;;;18.20;10.75;;;;;;;0.81;100.00;96506.56;5024421;28;20029;-66
2022/01/23 09:46:15;;;;;;;20.10;11.00;;;;;;;0.83;100.00;96496.66;5017197;28;20028;-66
2022/01/23 09:48:43;;;;;;;19.00;11.32;;;;;;;0.83;100.00;96506.41;5029649;28;20034;-66
2022/01/23 09:51:09;;;;;;;22.20;11.45;;;;;;;0.92;100.00;96494.81;5017615;28;20039;-67
2022/01/23 09:53:38;;;;;;;21.00;11.73;;;;;;;0.90;100.00;96496.00;5001272;28;20026;-68
2022/01/23 09:56:06;;;;;;;18.95;11.13;;;;;;;1.19;100.00;96495.38;5017412;28;20436;-66
2022/01/23 09:58:38;;;;;;;18.50;11.10;;;;;;;1.64;100.00;96484.09;5018448;28;20029;-66
2022/01/23 10:01:06;;;;;;;23.90;12.45;;;;;;;2.00;100.00;96484.34;5016464;28;20503;-66
2022/01/23 10:03:31;;;;;;;19.58;11.57;;;;;;;2.13;100.00;96468.69;5024193;28;20489;-66
2022/01/23 10:05:59;;;;;;;19.48;11.45;;;;;;;2.26;100.00;96478.66;5017135;28;20028;-66
2022/01/23 10:08:28;;;;;;;18.40;11.02;;;;;;;2.31;100.00;96471.03;5012489;28;20116;-65
2022/01/23 10:10:57;;;;;;;17.15;10.27;;;;;;;2.37;100.00;96465.00;4996882;28;20095;-66
2022/01/23 10:13:26;;;;;;;18.98;10.43;;;;;;;2.26;100.00;96455.69;5005916;28;20033;-66
2022/01/23 10:15:54;;;;;;;17.23;9.88;;;;;;;2.21;100.00;96455.41;5001417;28;20468;-66
2022/01/23 10:18:20;;;;;;;19.05;10.68;;;;;;;2.09;100.00;96450.75;5018880;28;20033;-63
2022/01/23 10:20:46;;;;;;;21.50;11.05;;;;;;;2.10;100.00;96447.91;5019817;28;20526;-66
2022/01/23 10:23:13;;;;;;;18.67;10.77;;;;;;;2.01;100.00;96443.69;4999824;28;20026;-66
2022/01/23 10:25:41;;;;;;;22.23;12.07;;;;;;;2.03;100.00;96439.88;5019784;28;20448;-67
2022/01/23 10:28:11;;;;;;;19.23;10.68;;;;;;;1.99;100.00;96437.78;5024070;28;20408;-67
2022/01/23 10:31:01;;;;;;;20.48;10.65;;;;;;;1.99;100.00;96420.09;5002256;28;20499;-67
2022/01/23 10:33:32;;;;;;;18.48;10.75;;;;;;;2.04;100.00;96424.84;5001116;28;20130;-67
2022/01/23 10:36:05;;;;;;;20.48;11.40;;;;;;;2.14;100.00;96417.47;5023790;28;20278;-68
2022/01/23 10:38:43;;;;;;;21.48;11.93;;;;;;;2.29;100.00;96413.06;5022635;28;20030;-68
2022/01/23 10:49:50;;;;;;;17.88;10.60;;;;;;;3.34;100.00;96361.63;4918228;28;20137;-68
2022/01/23 10:52:33;;;;;;;20.73;11.70;;;;;;;3.58;100.00;96342.75;4983357;28;20499;-68
2022/01/23 10:55:00;;;;;;;20.88;11.57;;;;;;;3.72;100.00;96338.38;4987903;28;20069;-68
2022/01/23 10:57:34;;;;;;;18.10;10.68;;;;;;;3.74;100.00;96328.38;5010109;28;20036;-66
2022/01/23 11:00:03;;;;;;;18.45;9.73;;;;;;;3.87;100.00;96315.22;5005069;28;20021;-66
2022/01/23 11:02:28;;;;;;;14.73;8.85;;;;;;;4.02;100.00;96288.66;4978102;28;20382;-66
2022/01/23 11:04:55;;;;;;;16.23;9.10;;;;;;;3.76;100.00;96270.72;4994133;28;20041;-66
2022/01/23 11:07:21;;;;;;;14.60;8.88;;;;;;;3.65;100.00;96250.03;5006172;28;20481;-66
2022/01/23 11:09:47;;;;;;;13.40;8.25;;;;;;;3.96;100.00;96242.50;4994372;28;20546;-66
2022/01/23 11:12:41;;;;;;;14.48;8.13;;;;;;;3.78;100.00;96224.44;4999159;28;20038;-66
2022/01/23 11:18:00;;;;;;;14.65;8.48;;;;;;;4.16;100.00;96186.94;4981891;28;20088;-66
2022/01/23 11:20:34;;;;;;;14.02;8.32;;;;;;;3.80;100.00;96171.28;4992818;28;20037;-66
2022/01/23 11:23:19;;;;;;;15.50;8.02;;;;;;;3.97;100.00;96177.88;4993753;28;20030;-66
2022/01/23 11:26:06;;;;;;;14.13;7.50;;;;;;;4.36;100.00;96161.31;5000923;28;20041;-66
2022/01/23 11:28:36;;;;;;;12.48;7.70;;;;;;;4.75;100.00;96148.31;4995672;28;20032;-66
2022/01/23 11:31:02;;;;;;;13.25;7.13;;;;;;;4.72;100.00;96135.47;5013220;28;20030;-66
2022/01/23 11:33:28;;;;;;;11.77;7.07;;;;;;;4.48;100.00;96129.72;4993550;28;20562;-66
2022/01/23 11:35:57;;;;;;;12.23;7.97;;;;;;;4.42;100.00;96122.53;4992314;28;20029;-66
2022/01/23 11:38:26;;;;;;;14.60;7.95;;;;;;;4.29;100.00;96109.25;4993848;28;20515;-66
2022/01/23 11:54:48;;;;;;;12.50;7.50;;;;;;;4.66;100.00;96099.91;4993749;28;20029;-66
2022/01/23 11:57:48;;;;;;;8.70;5.88;;;;;;;4.75;100.00;96105.84;5006566;28;20026;-66
2022/01/23 12:00:26;;;;;;;9.20;5.28;;;;;;;5.03;100.00;96110.97;4950123;28;20121;-66
2022/01/23 12:03:08;;;;;;;9.45;6.15;;;;;;;4.91;100.00;96110.78;4993311;28;20034;-66
2022/01/23 12:05:37;;;;;;;10.40;5.93;;;;;;;5.04;100.00;96118.75;5005412;28;20027;-66
2022/01/23 12:08:23;;;;;;;9.02;5.90;;;;;;;4.68;100.00;96123.63;5001374;28;20026;-66
2022/01/23 12:17:20;;;;;;;5.55;3.50;;;;;;;4.26;100.00;96139.66;5005227;28;20096;-66
2022/01/23 12:19:50;;;;;;;4.28;2.97;;;;;;;4.35;100.00;96141.13;4983923;28;20047;-66
2022/01/23 12:22:33;;;;;;;6.07;3.47;;;;;;;4.16;100.00;96141.88;4974980;28;20161;-66
2022/01/23 12:25:07;;;;;;;4.00;2.78;;;;;;;4.46;100.00;96154.81;5003669;28;20023;-66
2022/01/23 12:27:42;;;;;;;4.10;2.97;;;;;;;4.36;100.00;96168.47;4982864;28;20022;-66
2022/01/23 12:30:15;;;;;;;5.68;2.85;;;;;;;4.12;100.00;96168.94;4996555;28;20080;-66
2022/01/23 12:32:43;;;;;;;7.38;2.63;;;;;;;4.30;100.00;96170.06;4997934;28;20521;-66
2022/01/23 12:35:11;;;;;;;5.47;2.70;;;;;;;4.52;100.00;96170.72;4977134;28;20050;-66
2022/01/23 12:37:55;;;;;;;5.75;3.10;;;;;;;4.87;100.00;96173.25;4976997;28;20473;-66
2022/01/23 12:40:25;;;;;;;5.78;4.00;;;;;;;5.15;100.00;96184.50;4987651;28;20045;-66
2022/01/23 12:43:06;;;;;;;9.43;5.30;;;;;;;5.57;100.00;96177.16;4976343;28;20035;-66
2022/01/23 12:45:55;;;;;;;8.88;5.82;;;;;;;5.99;100.00;96173.19;4972093;28;20508;-66
2022/01/23 12:48:30;;;;;;;9.30;5.82;;;;;;;6.15;100.00;96185.22;4976806;28;20049;-66
2022/01/23 12:51:05;;;;;;;9.55;6.32;;;;;;;6.14;100.00;96186.25;4974079;28;20109;-66
2022/01/23 12:53:40;;;;;;;10.30;6.13;;;;;;;5.78;100.00;96203.50;4970612;28;20026;-66
2022/01/23 12:56:11;;;;;;;12.85;6.60;;;;;;;5.53;100.00;96203.31;4972059;28;20027;-66
2022/01/23 12:58:40;;;;;;;10.70;6.70;;;;;;;5.24;100.00;96209.84;4972171;28;20509;-66
2022/01/23 13:01:28;;;;;;;10.13;6.10;;;;;;;4.85;100.00;96213.28;4990623;28;20495;-66
2022/01/23 13:03:55;;;;;;;9.68;6.32;;;;;;;4.78;100.00;96207.16;4971693;28;20080;-66
2022/01/23 13:06:38;;;;;;;10.13;6.18;;;;;;;4.64;100.00;96205.47;4889778;28;20038;-67
2022/01/23 13:14:48;;;;;;;11.55;6.50;;;;;;;4.46;100.00;96200.72;4979900;28;20029;-67
2022/01/23 13:17:30;;;;;;;8.70;5.85;;;;;;;4.48;100.00;96190.72;4972042;28;20027;-66
2022/01/23 13:26:25;;;;;;;9.53;5.67;;;;;;;4.29;100.00;96192.28;4985038;28;20591;-67
2022/01/23 13:31:01;;;;;;;7.60;5.55;;;;;;;3.67;100.00;96189.72;4989009;28;20057;-66
2022/01/23 13:33:31;;;;;;;8.23;5.18;;;;;;;3.82;100.00;96192.28;4974155;28;20185;-66
2022/01/23 13:36:01;;;;;;;8.73;5.20;;;;;;;3.86;100.00;96193.50;5002068;28;20053;-66
2022/01/23 13:38:33;;;;;;;9.23;5.28;;;;;;;3.95;100.00;96189.69;4991102;28;20030;-66
2022/01/23 13:41:08;;;;;;;9.52;4.90;;;;;;;4.07;100.00;96191.59;4999500;28;20034;-66
2022/01/23 13:52:01;;;;;;;7.88;5.45;;;;;;;4.23;100.00;96187.78;5006021;28;20061;-66
2022/01/23 14:00:25;;;;;;;5.28;3.45;;;;;;;3.78;100.00;96189.19;5006851;28;20048;-66
2022/01/23 14:02:45;;;;;;;5.78;3.60;;;;;;;3.68;100.00;96184.22;5006550;28;20038;-70
2022/01/23 14:05:22;;;;;;;6.32;4.10;;;;;;;3.61;100.00;96188.69;5008432;28;20116;-68
2022/01/23 14:07:57;;;;;;;5.60;3.53;;;;;;;3.70;100.00;96187.53;5007056;28;20148;-68
2022/01/23 14:10:30;;;;;;;5.07;3.28;;;;;;;3.82;100.00;96184.34;5009394;28;20068;-68
2022/01/23 14:13:06;;;;;;;5.78;3.03;;;;;;;4.04;100.00;96185.88;4989194;28;20113;-67
2022/01/23 14:15:31;;;;;;;4.68;3.45;;;;;;;4.22;100.00;96185.31;4999764;28;20444;-68
2022/01/23 14:18:05;;;;;;;6.95;3.40;;;;;;;4.38;100.00;96197.44;4992960;28;20185;-68
2022/01/23 14:20:37;;;;;;;6.18;3.40;;;;;;;4.41;100.00;96192.53;5012007;28;20025;-68
2022/01/23 14:23:13;;;;;;;6.30;3.47;;;;;;;4.45;100.00;96196.44;5011723;28;20091;-65
2022/01/23 14:25:44;;;;;;;6.18;3.25;;;;;;;4.69;100.00;96194.25;4992160;28;20489;-66
2022/01/23 14:28:16;;;;;;;5.35;3.35;;;;;;;4.83;100.00;96196.72;5011970;28;20045;-66
2022/01/23 14:30:53;;;;;;;5.50;3.63;;;;;;;4.98;100.00;96203.69;4989941;28;20025;-65
2022/01/23 14:33:27;;;;;;;7.03;4.13;;;;;;;4.91;100.00;96199.19;5010991;28;20100;-66
2022/01/23 14:35:53;;;;;;;5.82;3.88;;;;;;;4.66;100.00;96203.41;4994144;28;20054;-66
2022/01/23 14:38:31;;;;;;;5.93;3.97;;;;;;;4.64;100.00;96216.06;4993324;28;20064;-66
2022/01/23 14:41:04;;;;;;;5.78;3.85;;;;;;;4.13;100.00;96221.00;5029080;28;20025;-66
2022/01/23 14:43:41;;;;;;;6.43;4.25;;;;;;;3.99;100.00;96214.78;5017741;28;20489;-66
2022/01/23 14:46:10;;;;;;;6.50;4.30;;;;;;;3.86;100.00;96218.19;5030974;28;20108;-66
2022/01/23 14:48:48;;;;;;;6.35;5.05;;;;;;;3.63;100.00;96217.63;5008050;28;20021;-66
2022/01/23 14:51:21;;;;;;;7.53;4.70;;;;;;;3.60;100.00;96216.19;5020129;28;20112;-66
2022/01/23 14:53:48;;;;;;;6.95;4.63;;;;;;;3.60;100.00;96204.78;5013915;28;20058;-66
2022/01/23 14:56:18;;;;;;;7.50;4.13;;;;;;;3.42;100.00;96208.72;4996590;28;20499;-66
2022/01/23 14:58:44;;;;;;;8.45;4.60;;;;;;;3.37;100.00;96205.03;4994252;28;20038;-66
2022/01/23 15:01:13;;;;;;;8.02;4.30;;;;;;;3.38;100.00;96202.19;5013132;28;20101;-66
2022/01/23 15:03:43;;;;;;;6.65;4.35;;;;;;;3.30;100.00;96202.31;5027829;28;20065;-66
2022/01/23 15:06:09;;;;;;;6.68;4.03;;;;;;;3.16;100.00;96212.00;5029085;28;20112;-66